Time;durP1;ratioP1;P1;durP2;ratioP2;P2;SDS_P1;SDS_P2;PMS_P1;PMS_P2;Temp;Humidity;BMP_temperature;BMP_pressure;BME280_temperature;BME280_humidity;BME280_pressure;Samples;Min_cycle;Max_cycle;Signal;HPM_P1;HPM_P2
2023/07/19 00:00:23;;;;;;;7.55;2.70;;;24.20;65.10;;;;;;5111838;28;20055;-83
2023/07/19 00:02:49;;;;;;;4.65;2.30;;;24.20;65.30;;;;;;5093410;28;20035;-83
2023/07/19 00:05:14;;;;;;;5.25;2.40;;;24.20;65.00;;;;;;5093633;28;20053;-83
2023/07/19 00:07:40;;;;;;;7.55;3.10;;;24.20;65.10;;;;;;5093162;28;20016;-83
2023/07/19 00:10:06;;;;;;;7.63;2.83;;;24.30;65.40;;;;;;5093334;28;20066;-84
2023/07/19 00:12:33;;;;;;;6.00;2.92;;;24.20;65.60;;;;;;5111656;28;20024;-84
2023/07/19 00:14:59;;;;;;;8.88;2.22;;;24.20;66.40;;;;;;5093684;28;20043;-84
2023/07/19 00:17:25;;;;;;;7.78;2.47;;;24.10;67.40;;;;;;5093660;28;20035;-84
2023/07/19 00:19:51;;;;;;;12.45;3.40;;;24.00;68.80;;;;;;5093237;28;20054;-82
2023/07/19 00:22:16;;;;;;;7.78;3.28;;;24.00;70.20;;;;;;5093323;28;20395;-83
2023/07/19 00:24:42;;;;;;;5.00;2.97;;;23.90;70.50;;;;;;5093546;28;20452;-83
2023/07/19 00:27:08;;;;;;;5.88;3.15;;;23.90;71.00;;;;;;5111825;28;20403;-83
2023/07/19 00:29:33;;;;;;;6.22;2.83;;;23.80;71.40;;;;;;5111466;28;20052;-83
2023/07/19 00:31:59;;;;;;;3.85;2.40;;;23.80;72.20;;;;;;5111219;28;20063;-83
2023/07/19 00:34:25;;;;;;;4.50;2.50;;;23.80;71.80;;;;;;5092779;28;20046;-83
2023/07/19 00:36:50;;;;;;;5.68;3.03;;;23.70;72.10;;;;;;5093858;28;20024;-83
2023/07/19 00:39:16;;;;;;;4.82;3.17;;;23.70;72.40;;;;;;5112106;28;20472;-83
2023/07/19 00:41:42;;;;;;;4.03;2.53;;;23.70;72.90;;;;;;5112082;28;20024;-84
2023/07/19 00:44:07;;;;;;;7.88;2.75;;;23.70;73.20;;;;;;5111747;28;20495;-83
2023/07/19 00:46:33;;;;;;;9.40;2.78;;;23.60;73.60;;;;;;5093600;28;20089;-82
2023/07/19 00:48:59;;;;;;;6.65;3.22;;;23.60;73.80;;;;;;5093102;28;20019;-82
2023/07/19 00:51:25;;;;;;;5.55;3.17;;;23.50;73.50;;;;;;5111114;28;20113;-82
2023/07/19 00:53:52;;;;;;;6.30;2.95;;;23.50;73.00;;;;;;5111193;28;20068;-83
2023/07/19 00:56:19;;;;;;;8.77;2.83;;;23.40;72.90;;;;;;5111327;28;20023;-83
2023/07/19 00:58:46;;;;;;;6.75;2.42;;;23.30;72.70;;;;;;5111819;28;20080;-84
2023/07/19 01:01:12;;;;;;;4.97;2.70;;;23.20;72.80;;;;;;5112479;28;20016;-85
2023/07/19 01:03:37;;;;;;;9.85;2.78;;;23.10;73.10;;;;;;5111952;28;20023;-83
2023/07/19 01:06:06;;;;;;;5.28;2.60;;;23.10;73.50;;;;;;5111454;28;20020;-84
2023/07/19 01:08:32;;;;;;;4.88;2.72;;;23.00;74.00;;;;;;5111193;28;20051;-84
2023/07/19 01:10:58;;;;;;;7.00;3.40;;;22.90;74.00;;;;;;5097983;28;20051;-85
2023/07/19 01:13:23;;;;;;;5.57;2.65;;;23.00;74.30;;;;;;5098019;28;20028;-85
2023/07/19 01:15:49;;;;;;;5.30;2.55;;;23.00;74.40;;;;;;5116331;28;20453;-85
2023/07/19 01:18:15;;;;;;;10.07;2.83;;;23.00;74.70;;;;;;5097120;28;20472;-85
2023/07/19 01:20:40;;;;;;;10.15;3.25;;;23.00;74.70;;;;;;5115980;28;20024;-86
2023/07/19 01:23:06;;;;;;;10.50;3.30;;;23.00;75.10;;;;;;5097817;28;20484;-85
2023/07/19 01:25:32;;;;;;;5.20;2.88;;;23.00;75.40;;;;;;5115830;28;20036;-86
2023/07/19 01:27:58;;;;;;;5.90;2.92;;;22.90;75.00;;;;;;5097968;28;20043;-86
2023/07/19 01:30:23;;;;;;;7.97;3.05;;;23.00;75.30;;;;;;5115906;28;20507;-86
2023/07/19 01:32:49;;;;;;;6.07;2.65;;;23.00;75.60;;;;;;5115926;28;20026;-86
2023/07/19 01:35:16;;;;;;;6.88;2.60;;;23.00;76.30;;;;;;5115820;28;20028;-86
2023/07/19 01:37:41;;;;;;;8.63;2.85;;;23.00;76.50;;;;;;5115653;28;20019;-86
2023/07/19 01:40:09;;;;;;;7.00;2.70;;;23.00;76.50;;;;;;5097579;28;20126;-85
2023/07/19 01:42:34;;;;;;;5.57;3.10;;;22.90;76.60;;;;;;5097330;28;20020;-85
2023/07/19 01:45:01;;;;;;;4.28;2.58;;;22.90;77.00;;;;;;5097420;28;20031;-85
2023/07/19 01:47:27;;;;;;;5.10;3.22;;;22.90;77.40;;;;;;5097796;28;20020;-86
2023/07/19 01:49:52;;;;;;;10.25;3.03;;;22.80;77.90;;;;;;5097145;28;20039;-86
2023/07/19 01:52:18;;;;;;;3.85;2.53;;;22.80;79.30;;;;;;5097483;28;20590;-86
2023/07/19 01:54:44;;;;;;;9.00;3.42;;;22.80;79.30;;;;;;5115396;28;20038;-86
2023/07/19 01:57:11;;;;;;;6.30;2.95;;;22.80;80.10;;;;;;5096376;28;20024;-83
2023/07/19 01:59:36;;;;;;;7.25;3.10;;;22.70;80.30;;;;;;5114218;28;20023;-83
2023/07/19 02:02:02;;;;;;;4.75;2.92;;;22.70;80.50;;;;;;5114356;28;20492;-83
2023/07/19 02:04:28;;;;;;;10.90;3.60;;;22.70;80.50;;;;;;5095791;28;20043;-83
2023/07/19 02:06:54;;;;;;;9.55;2.67;;;22.60;80.60;;;;;;5114136;28;20047;-83
2023/07/19 02:09:19;;;;;;;9.32;3.15;;;22.60;80.80;;;;;;5114094;28;20024;-83
2023/07/19 02:11:45;;;;;;;6.72;3.10;;;22.50;81.30;;;;;;5095732;28;20020;-84
2023/07/19 02:14:11;;;;;;;4.63;2.75;;;22.60;81.50;;;;;;5113871;28;20043;-82
2023/07/19 02:16:36;;;;;;;4.55;2.53;;;22.50;81.70;;;;;;5095610;28;20496;-84
2023/07/19 02:19:05;;;;;;;7.22;3.15;;;22.50;82.10;;;;;;5113013;28;20487;-83
2023/07/19 02:21:30;;;;;;;6.70;2.83;;;22.40;82.00;;;;;;5094638;28;20085;-83
2023/07/19 02:23:57;;;;;;;7.20;2.58;;;22.40;82.00;;;;;;5114440;28;20480;-83
2023/07/19 02:26:23;;;;;;;5.43;2.72;;;22.30;82.10;;;;;;5115128;28;20091;-83
2023/07/19 02:28:49;;;;;;;6.00;2.70;;;22.20;82.40;;;;;;5096716;28;20039;-82
2023/07/19 02:31:14;;;;;;;4.55;2.40;;;22.20;82.80;;;;;;5092264;28;20040;-81
2023/07/19 02:33:40;;;;;;;5.00;2.58;;;22.10;82.50;;;;;;5093493;28;20040;-82
2023/07/19 02:36:06;;;;;;;5.95;2.60;;;22.00;82.30;;;;;;5093650;28;20016;-84
2023/07/19 02:38:31;;;;;;;9.18;2.53;;;21.90;82.60;;;;;;5093123;28;20503;-82
2023/07/19 02:40:59;;;;;;;7.03;2.65;;;21.90;83.10;;;;;;5094843;28;20020;-83
2023/07/19 02:43:25;;;;;;;6.50;3.67;;;21.90;83.50;;;;;;5093094;28;20381;-83
2023/07/19 02:45:54;;;;;;;12.25;3.33;;;21.90;83.10;;;;;;5091449;28;20020;-82
2023/07/19 02:48:21;;;;;;;6.07;2.78;;;21.80;83.30;;;;;;5092299;28;20521;-84
2023/07/19 02:50:48;;;;;;;8.50;3.17;;;21.80;83.40;;;;;;5093240;28;20036;-83
2023/07/19 02:53:14;;;;;;;6.70;2.60;;;21.80;83.60;;;;;;5093099;28;20485;-84
2023/07/19 02:55:42;;;;;;;5.53;2.78;;;21.80;83.70;;;;;;5093031;28;20024;-83
2023/07/19 02:58:07;;;;;;;10.90;3.67;;;21.80;83.90;;;;;;5093117;28;20026;-83
2023/07/19 03:00:33;;;;;;;7.15;2.92;;;21.80;83.90;;;;;;5091730;28;20369;-84
2023/07/19 03:02:59;;;;;;;14.43;3.28;;;21.80;83.80;;;;;;5092847;28;20024;-83
2023/07/19 03:05:24;;;;;;;6.28;2.85;;;21.80;84.30;;;;;;5092717;28;20032;-83
2023/07/19 03:07:50;;;;;;;9.85;3.45;;;21.80;84.40;;;;;;5092606;28;20491;-83
2023/07/19 03:10:16;;;;;;;8.98;2.70;;;21.70;85.10;;;;;;5090486;28;20028;-80
2023/07/19 03:12:42;;;;;;;10.77;2.55;;;21.70;84.90;;;;;;5090294;28;20115;-81
2023/07/19 03:15:08;;;;;;;7.18;2.80;;;21.70;85.00;;;;;;5090488;28;20483;-83
2023/07/19 03:17:34;;;;;;;5.45;2.67;;;21.70;84.90;;;;;;5090915;28;20020;-83
2023/07/19 03:19:59;;;;;;;7.55;2.97;;;21.70;84.90;;;;;;5090199;28;20101;-82
2023/07/19 03:22:25;;;;;;;7.30;2.58;;;21.80;85.10;;;;;;5091795;28;20024;-76
2023/07/19 03:24:51;;;;;;;5.68;3.03;;;21.80;85.10;;;;;;5090779;28;20459;-83
2023/07/19 03:27:16;;;;;;;5.10;2.65;;;21.90;85.10;;;;;;5089958;28;20038;-83
2023/07/19 03:29:42;;;;;;;9.52;2.67;;;21.90;85.40;;;;;;5096177;28;20051;-82
2023/07/19 03:32:08;;;;;;;12.07;2.72;;;21.90;85.70;;;;;;5112127;28;20036;-80
2023/07/19 03:34:34;;;;;;;9.90;2.80;;;22.00;85.80;;;;;;5093242;28;20058;-83
2023/07/19 03:37:00;;;;;;;7.22;2.70;;;22.00;85.40;;;;;;5093366;28;20408;-82
2023/07/19 03:39:25;;;;;;;6.10;3.10;;;22.10;85.70;;;;;;5111565;28;20031;-81
2023/07/19 03:41:51;;;;;;;5.88;2.88;;;22.20;86.20;;;;;;5092800;28;20024;-82
2023/07/19 03:44:17;;;;;;;6.88;2.85;;;22.20;86.00;;;;;;5110695;28;20399;-82
2023/07/19 03:46:43;;;;;;;6.55;3.00;;;22.30;83.60;;;;;;5110733;28;20081;-82
2023/07/19 03:49:09;;;;;;;8.48;3.05;;;22.40;83.10;;;;;;5093217;28;20041;-81
2023/07/19 03:51:34;;;;;;;7.80;3.13;;;22.60;83.00;;;;;;5110835;28;20476;-82
2023/07/19 03:54:00;;;;;;;10.55;2.95;;;22.60;83.40;;;;;;5092893;28;20047;-81
2023/07/19 03:56:26;;;;;;;7.47;3.40;;;22.70;84.20;;;;;;5110725;28;20026;-81
2023/07/19 03:58:51;;;;;;;5.75;3.13;;;22.70;84.90;;;;;;5092458;28;20055;-83
2023/07/19 04:01:17;;;;;;;6.15;2.97;;;22.80;84.40;;;;;;5109976;28;20054;-81
2023/07/19 04:03:43;;;;;;;7.10;3.15;;;22.90;84.30;;;;;;5110657;28;20034;-81
2023/07/19 04:06:09;;;;;;;7.95;2.65;;;22.90;84.50;;;;;;5110818;28;20048;-80
2023/07/19 04:08:35;;;;;;;8.23;3.42;;;22.90;84.70;;;;;;5110662;28;20479;-82
2023/07/19 04:11:01;;;;;;;8.63;3.28;;;23.00;85.60;;;;;;5093060;28;20048;-82
2023/07/19 04:13:27;;;;;;;5.38;2.83;;;23.10;85.60;;;;;;5093296;28;20038;-83
2023/07/19 04:15:53;;;;;;;4.78;2.70;;;23.20;85.40;;;;;;5093686;28;20054;-83
2023/07/19 04:18:19;;;;;;;7.88;3.35;;;23.20;85.70;;;;;;5111579;28;20023;-83
2023/07/19 04:20:45;;;;;;;9.50;3.22;;;23.20;85.90;;;;;;5110997;28;20069;-83
2023/07/19 04:23:11;;;;;;;12.35;3.20;;;23.20;86.90;;;;;;5111323;28;20024;-84
2023/07/19 04:25:37;;;;;;;10.60;2.78;;;23.20;86.80;;;;;;5093221;28;20594;-83
2023/07/19 04:28:03;;;;;;;7.90;3.15;;;23.20;87.10;;;;;;5092923;28;20114;-83
2023/07/19 04:30:28;;;;;;;10.27;3.47;;;23.20;87.70;;;;;;5093266;28;20101;-83
2023/07/19 04:32:55;;;;;;;9.15;4.07;;;23.20;87.40;;;;;;5093287;28;20031;-83
2023/07/19 04:35:24;;;;;;;7.13;3.15;;;23.20;87.70;;;;;;5093458;28;20097;-83
2023/07/19 04:37:50;;;;;;;8.07;3.47;;;23.30;88.10;;;;;;5111413;28;20041;-83
2023/07/19 04:40:16;;;;;;;8.77;4.63;;;23.40;88.10;;;;;;5093594;28;20074;-83
2023/07/19 04:42:42;;;;;;;16.45;4.90;;;23.50;88.80;;;;;;5111472;28;20030;-83
2023/07/19 04:45:09;;;;;;;12.57;5.07;;;23.60;89.00;;;;;;5095599;28;20027;-83
2023/07/19 04:47:37;;;;;;;8.43;3.80;;;23.70;88.70;;;;;;5096151;28;20369;-82
2023/07/19 04:50:06;;;;;;;6.47;3.42;;;23.80;88.70;;;;;;5096739;28;20028;-83
2023/07/19 04:52:32;;;;;;;7.32;3.30;;;23.90;88.50;;;;;;5114782;28;20100;-83
2023/07/19 04:54:58;;;;;;;5.93;2.92;;;24.00;88.20;;;;;;5096749;28;20128;-82
2023/07/19 04:57:23;;;;;;;5.57;3.42;;;24.10;87.30;;;;;;5115008;28;20035;-82
2023/07/19 04:59:49;;;;;;;6.70;3.05;;;24.20;86.80;;;;;;5115027;28;20027;-84
2023/07/19 05:02:14;;;;;;;11.63;3.38;;;24.20;85.90;;;;;;5096159;28;20027;-82
2023/07/19 05:04:40;;;;;;;8.77;3.90;;;24.30;85.60;;;;;;5096272;28;20023;-81
2023/07/19 05:07:06;;;;;;;10.27;4.57;;;24.40;84.50;;;;;;5096263;28;20495;-82
2023/07/19 05:09:31;;;;;;;12.13;4.10;;;24.50;83.60;;;;;;5114432;28;20070;-81
2023/07/19 05:11:57;;;;;;;16.17;4.53;;;24.50;85.00;;;;;;5096796;28;20020;-82
2023/07/19 05:14:23;;;;;;;12.88;4.25;;;24.60;85.60;;;;;;5114471;28;20043;-83
2023/07/19 05:16:50;;;;;;;8.15;3.53;;;24.60;85.70;;;;;;5096307;28;20042;-83
2023/07/19 05:19:15;;;;;;;6.45;3.75;;;24.60;86.00;;;;;;5114763;28;20027;-83
2023/07/19 05:21:41;;;;;;;9.50;4.00;;;24.70;84.60;;;;;;5096325;28;20023;-82
2023/07/19 05:24:07;;;;;;;7.90;3.67;;;24.90;82.60;;;;;;5096281;28;20059;-83
2023/07/19 05:26:33;;;;;;;11.85;3.70;;;25.00;82.20;;;;;;5096191;28;20395;-82
2023/07/19 05:28:58;;;;;;;8.73;3.60;;;25.20;81.50;;;;;;5114428;28;20036;-83
2023/07/19 05:31:24;;;;;;;8.35;3.00;;;25.30;80.90;;;;;;5092300;28;20044;-83
2023/07/19 05:33:50;;;;;;;9.68;3.88;;;25.50;79.70;;;;;;5093666;28;20031;-83
2023/07/19 05:36:15;;;;;;;9.20;3.10;;;25.50;77.60;;;;;;5092052;28;20028;-82
2023/07/19 05:38:41;;;;;;;9.95;3.58;;;25.50;76.40;;;;;;5092594;28;20378;-83
2023/07/19 05:41:07;;;;;;;8.10;3.75;;;25.50;76.00;;;;;;5093671;28;20110;-82
2023/07/19 05:43:33;;;;;;;5.70;2.97;;;25.50;76.60;;;;;;5093709;28;20149;-82
2023/07/19 05:46:08;;;;;;;7.35;3.22;;;25.60;76.10;;;;;;5093630;28;20085;-81
2023/07/19 05:48:35;;;;;;;10.05;3.10;;;25.70;75.10;;;;;;5092295;28;20032;-83
2023/07/19 05:51:02;;;;;;;7.45;3.22;;;25.90;75.10;;;;;;5093415;28;20109;-83
2023/07/19 05:53:28;;;;;;;6.78;3.20;;;26.00;73.80;;;;;;5092068;28;20454;-83
2023/07/19 05:55:54;;;;;;;11.13;3.25;;;26.20;74.20;;;;;;5092420;28;20024;-83
2023/07/19 05:58:20;;;;;;;8.35;3.20;;;26.40;71.30;;;;;;5092091;28;20479;-83
2023/07/19 06:00:47;;;;;;;5.15;2.97;;;26.50;71.10;;;;;;5092922;28;20020;-82
2023/07/19 06:03:16;;;;;;;8.30;3.05;;;26.60;71.40;;;;;;5091643;28;20435;-84
2023/07/19 06:05:45;;;;;;;6.63;3.40;;;26.70;71.00;;;;;;5092060;28;20024;-83
2023/07/19 06:08:11;;;;;;;7.40;2.78;;;26.90;70.70;;;;;;5092127;28;20107;-82
2023/07/19 06:10:37;;;;;;;11.15;3.65;;;27.30;69.80;;;;;;5092373;28;20032;-84
2023/07/19 06:13:03;;;;;;;8.25;3.15;;;27.50;68.80;;;;;;5092275;28;20082;-83
2023/07/19 06:15:32;;;;;;;9.60;2.60;;;27.90;65.80;;;;;;5092217;28;20023;-83
2023/07/19 06:17:59;;;;;;;4.55;2.75;;;28.00;65.20;;;;;;5093092;28;20035;-83
2023/07/19 06:20:24;;;;;;;7.60;3.13;;;28.20;63.20;;;;;;5091384;28;20081;-83
2023/07/19 06:22:50;;;;;;;5.78;3.00;;;28.40;64.00;;;;;;5093074;28;20032;-83
2023/07/19 06:25:16;;;;;;;7.28;3.38;;;28.50;63.00;;;;;;5091740;28;20438;-83
2023/07/19 06:27:42;;;;;;;11.13;3.22;;;28.50;62.90;;;;;;5091668;28;20556;-83
2023/07/19 06:30:09;;;;;;;11.65;3.28;;;28.60;63.40;;;;;;5101040;28;20043;-84
2023/07/19 06:32:36;;;;;;;10.43;3.92;;;28.50;63.40;;;;;;5095089;28;20110;-84
2023/07/19 06:35:02;;;;;;;6.35;3.47;;;28.80;63.30;;;;;;5112663;28;20098;-81
2023/07/19 06:37:28;;;;;;;8.55;3.65;;;28.90;63.30;;;;;;5112982;28;20399;-83
2023/07/19 06:39:54;;;;;;;10.38;3.67;;;28.80;63.50;;;;;;5094615;28;20020;-83
2023/07/19 06:42:19;;;;;;;15.80;4.15;;;28.90;63.80;;;;;;5112486;28;20376;-83
2023/07/19 06:44:45;;;;;;;7.00;3.85;;;29.00;64.10;;;;;;5113147;28;20024;-82
2023/07/19 06:47:10;;;;;;;14.80;3.53;;;29.00;64.20;;;;;;5094281;28;20529;-83
2023/07/19 06:49:37;;;;;;;8.10;3.95;;;29.10;64.80;;;;;;5094338;28;20114;-83
2023/07/19 06:52:04;;;;;;;11.45;4.22;;;29.70;63.20;;;;;;5112400;28;20031;-82
2023/07/19 06:54:29;;;;;;;6.57;3.53;;;30.10;62.50;;;;;;5093828;28;20034;-80
2023/07/19 06:56:55;;;;;;;5.97;3.63;;;30.40;61.00;;;;;;5094116;28;20110;-81
2023/07/19 06:59:21;;;;;;;7.25;3.55;;;30.50;60.80;;;;;;5112473;28;20038;-80
2023/07/19 07:01:46;;;;;;;6.45;3.80;;;30.60;60.90;;;;;;5112561;28;20046;-80
2023/07/19 07:04:12;;;;;;;15.45;3.78;;;30.60;60.70;;;;;;5112818;28;20403;-80
2023/07/19 07:06:38;;;;;;;10.88;3.53;;;30.50;60.00;;;;;;5112170;28;20024;-82
2023/07/19 07:09:04;;;;;;;10.60;3.38;;;30.40;59.40;;;;;;5112030;28;20103;-80
2023/07/19 07:11:29;;;;;;;6.32;3.35;;;30.40;59.80;;;;;;5112436;28;20024;-80
2023/07/19 07:13:55;;;;;;;6.20;3.20;;;30.30;60.10;;;;;;5112315;28;20133;-80
2023/07/19 07:16:21;;;;;;;7.13;3.63;;;30.40;60.40;;;;;;5094206;28;20030;-82
2023/07/19 07:18:46;;;;;;;5.32;3.20;;;30.60;60.10;;;;;;5112308;28;20373;-81
2023/07/19 07:21:12;;;;;;;6.85;3.92;;;30.80;58.90;;;;;;5093897;28;20586;-79
2023/07/19 07:23:37;;;;;;;13.50;4.47;;;30.90;58.80;;;;;;5112308;28;20055;-80
2023/07/19 07:26:03;;;;;;;8.10;3.78;;;30.70;58.70;;;;;;5112110;28;20027;-82
2023/07/19 07:28:29;;;;;;;6.55;3.60;;;30.50;59.00;;;;;;5093528;28;20023;-81
2023/07/19 07:30:54;;;;;;;8.00;3.47;;;30.20;58.90;;;;;;5111757;28;20059;-83
2023/07/19 07:33:20;;;;;;;9.40;4.30;;;30.00;59.30;;;;;;5093814;28;20026;-80
2023/07/19 07:35:46;;;;;;;10.02;3.80;;;30.20;60.00;;;;;;5093749;28;20031;-81
2023/07/19 07:38:12;;;;;;;8.10;4.32;;;30.30;60.20;;;;;;5093681;28;20015;-81
2023/07/19 07:40:38;;;;;;;8.82;3.65;;;30.50;59.80;;;;;;5093833;28;20405;-81
2023/07/19 07:43:03;;;;;;;10.75;3.97;;;30.40;59.60;;;;;;5111632;28;20055;-81
2023/07/19 07:45:29;;;;;;;7.72;3.92;;;30.30;60.10;;;;;;5112066;28;20426;-81
2023/07/19 07:47:54;;;;;;;8.00;4.00;;;29.80;60.00;;;;;;5111881;28;20098;-84
2023/07/19 07:50:22;;;;;;;9.18;4.35;;;29.50;61.40;;;;;;5111334;28;20032;-84
2023/07/19 07:52:50;;;;;;;7.18;3.92;;;29.30;61.20;;;;;;5093181;28;20069;-83
2023/07/19 07:55:16;;;;;;;7.72;4.00;;;29.20;61.70;;;;;;5111690;28;20504;-84
2023/07/19 07:57:41;;;;;;;8.18;3.70;;;29.10;61.80;;;;;;5111808;28;20080;-82
2023/07/19 08:00:11;;;;;;;9.75;3.17;;;29.20;62.50;;;;;;5111562;28;20626;-81
2023/07/19 08:02:36;;;;;;;9.98;3.70;;;29.70;62.10;;;;;;5111529;28;20024;-82
2023/07/19 08:05:04;;;;;;;13.73;4.15;;;30.60;60.80;;;;;;5111222;28;20035;-81
2023/07/19 08:07:30;;;;;;;9.13;4.25;;;31.40;58.70;;;;;;5093448;28;20031;-82
2023/07/19 08:09:56;;;;;;;6.13;3.92;;;32.10;57.20;;;;;;5111374;28;20567;-81
2023/07/19 08:12:22;;;;;;;11.85;4.10;;;32.70;55.40;;;;;;5093316;28;20026;-82
2023/07/19 08:14:47;;;;;;;13.48;3.92;;;33.20;53.70;;;;;;5093560;28;20043;-82
2023/07/19 08:17:13;;;;;;;7.95;3.60;;;33.70;52.80;;;;;;5111380;28;20023;-82
2023/07/19 08:19:38;;;;;;;9.57;4.05;;;34.20;52.00;;;;;;5112731;28;20114;-81
2023/07/19 08:22:05;;;;;;;12.90;4.15;;;34.60;50.40;;;;;;5115653;28;20468;-83
2023/07/19 08:24:31;;;;;;;23.77;4.25;;;35.00;48.80;;;;;;5097244;28;20031;-82
2023/07/19 08:26:57;;;;;;;8.50;3.60;;;35.40;48.60;;;;;;5115426;28;20039;-82
2023/07/19 08:29:26;;;;;;;8.05;3.20;;;35.50;48.10;;;;;;5096855;28;20142;-82
2023/07/19 08:31:52;;;;;;;6.68;3.53;;;35.90;47.20;;;;;;5115412;28;20024;-82
2023/07/19 08:34:19;;;;;;;8.15;3.42;;;36.10;46.60;;;;;;5115316;28;20062;-82
2023/07/19 08:36:45;;;;;;;8.00;3.70;;;36.30;46.00;;;;;;5096814;28;20027;-81
2023/07/19 08:39:11;;;;;;;5.60;3.75;;;36.20;45.70;;;;;;5097093;28;20118;-83
2023/07/19 08:41:37;;;;;;;6.97;3.17;;;36.30;45.20;;;;;;5096962;28;20607;-81
2023/07/19 08:44:04;;;;;;;6.22;3.42;;;36.10;45.30;;;;;;5115223;28;20027;-82
2023/07/19 08:46:32;;;;;;;10.63;3.75;;;36.00;44.70;;;;;;5097156;28;20023;-83
2023/07/19 08:48:59;;;;;;;12.13;3.67;;;35.90;45.70;;;;;;5115168;28;20020;-82
2023/07/19 08:51:26;;;;;;;6.60;3.88;;;35.70;45.70;;;;;;5096874;28;20492;-83
2023/07/19 08:53:51;;;;;;;5.60;3.40;;;35.60;45.60;;;;;;5114759;28;20391;-83
2023/07/19 08:56:17;;;;;;;11.05;3.67;;;35.70;45.90;;;;;;5096153;28;20034;-82
2023/07/19 08:58:44;;;;;;;8.65;3.67;;;36.00;46.50;;;;;;5114787;28;20098;-83
2023/07/19 09:01:14;;;;;;;7.78;4.10;;;36.40;45.70;;;;;;5096145;28;20020;-83
2023/07/19 09:03:39;;;;;;;12.40;4.60;;;36.20;44.80;;;;;;5096403;28;20024;-82
2023/07/19 09:06:05;;;;;;;11.48;3.90;;;36.10;45.30;;;;;;5096410;28;20498;-82
2023/07/19 09:08:40;;;;;;;10.60;3.65;;;36.40;43.80;;;;;;5096410;28;20028;-84
2023/07/19 09:11:09;;;;;;;9.23;3.50;;;36.40;44.30;;;;;;5114432;28;20031;-83
2023/07/19 09:13:38;;;;;;;9.27;4.28;;;36.10;45.20;;;;;;5113964;28;20062;-82
2023/07/19 09:16:04;;;;;;;7.30;3.70;;;36.20;44.70;;;;;;5095665;28;20503;-82
2023/07/19 09:18:37;;;;;;;12.15;4.05;;;36.20;45.00;;;;;;5095953;28;20023;-83
2023/07/19 09:21:06;;;;;;;10.10;3.90;;;36.20;46.30;;;;;;5096119;28;20020;-82
2023/07/19 09:23:36;;;;;;;11.10;3.50;;;36.30;45.60;;;;;;5114478;28;20020;-83
2023/07/19 09:26:04;;;;;;;5.93;3.05;;;36.40;45.10;;;;;;5114757;28;20028;-82
2023/07/19 09:28:30;;;;;;;9.07;3.50;;;36.40;45.40;;;;;;5095920;28;20479;-82
2023/07/19 09:30:58;;;;;;;6.82;3.65;;;36.30;44.90;;;;;;5113995;28;20168;-83
2023/07/19 09:33:26;;;;;;;12.95;4.40;;;36.00;45.50;;;;;;5114323;28;20047;-82
2023/07/19 09:35:56;;;;;;;25.83;4.13;;;35.80;46.70;;;;;;5114228;28;20039;-83
2023/07/19 09:38:23;;;;;;;6.68;3.38;;;35.80;46.00;;;;;;5113942;28;20043;-83
2023/07/19 09:40:53;;;;;;;11.10;3.83;;;35.30;47.00;;;;;;5114511;28;20065;-83
2023/07/19 09:43:20;;;;;;;13.95;4.53;;;34.90;47.30;;;;;;5095787;28;20035;-83
2023/07/19 09:45:48;;;;;;;7.88;4.00;;;34.50;48.50;;;;;;5113938;28;20039;-83
2023/07/19 09:48:18;;;;;;;6.55;3.47;;;34.80;48.20;;;;;;5095614;28;20071;-83
2023/07/19 09:50:49;;;;;;;11.05;4.03;;;35.30;47.90;;;;;;5094920;28;20023;-82
2023/07/19 09:53:15;;;;;;;7.85;3.70;;;35.60;47.90;;;;;;5113604;28;20488;-84
2023/07/19 09:55:43;;;;;;;8.23;2.90;;;35.70;47.10;;;;;;5113813;28;20575;-80
2023/07/19 09:58:15;;;;;;;7.32;3.42;;;35.40;47.40;;;;;;5113568;28;20518;-83
2023/07/19 10:00:41;;;;;;;8.18;4.18;;;35.40;48.00;;;;;;5113777;28;20111;-83
2023/07/19 10:03:08;;;;;;;12.80;3.30;;;35.40;47.90;;;;;;5095422;28;20391;-83
2023/07/19 10:05:36;;;;;;;6.32;3.35;;;35.20;47.90;;;;;;5113949;28;20543;-83
2023/07/19 10:08:04;;;;;;;7.45;3.97;;;34.80;48.00;;;;;;5113614;28;20028;-83
2023/07/19 10:10:38;;;;;;;10.02;4.03;;;34.60;48.70;;;;;;5095351;28;20065;-84
2023/07/19 10:13:06;;;;;;;10.60;3.67;;;34.50;48.90;;;;;;5113484;28;20044;-82
2023/07/19 10:15:31;;;;;;;7.93;3.15;;;34.20;49.20;;;;;;5113415;28;20039;-83
2023/07/19 10:17:58;;;;;;;14.02;3.55;;;34.00;50.30;;;;;;5113127;28;20024;-82
2023/07/19 10:20:27;;;;;;;10.18;3.80;;;33.80;50.90;;;;;;5113537;28;20098;-82
2023/07/19 10:22:55;;;;;;;15.77;4.13;;;33.80;50.50;;;;;;5113358;28;20024;-82
2023/07/19 10:25:29;;;;;;;6.57;3.47;;;33.60;50.80;;;;;;5094971;28;20408;-82
2023/07/19 10:27:59;;;;;;;5.22;3.40;;;33.40;51.60;;;;;;5095042;28;20020;-82
2023/07/19 10:30:44;;;;;;;10.15;3.92;;;33.20;51.60;;;;;;5094785;28;20132;-82
2023/07/19 10:33:11;;;;;;;9.57;3.47;;;33.00;51.80;;;;;;5094850;28;20023;-82
2023/07/19 10:35:36;;;;;;;14.90;4.20;;;32.90;51.90;;;;;;5094745;28;20063;-82
2023/07/19 10:38:02;;;;;;;10.48;3.22;;;32.80;51.40;;;;;;5094384;28;20051;-82
2023/07/19 10:40:28;;;;;;;16.02;4.20;;;32.70;52.00;;;;;;5113045;28;20026;-82
2023/07/19 10:42:54;;;;;;;15.02;3.55;;;32.70;51.70;;;;;;5094141;28;20396;-83
2023/07/19 10:45:20;;;;;;;14.10;4.10;;;32.70;51.70;;;;;;5113067;28;20822;-83
2023/07/19 10:47:46;;;;;;;9.65;3.33;;;32.60;52.60;;;;;;5093790;28;20020;-82
2023/07/19 10:50:12;;;;;;;12.23;3.58;;;32.50;52.80;;;;;;5112470;28;20028;-81
2023/07/19 10:52:37;;;;;;;10.95;3.70;;;32.40;52.50;;;;;;5112679;28;20027;-81
2023/07/19 10:55:03;;;;;;;11.20;3.85;;;32.20;53.20;;;;;;5112259;28;20047;-82
2023/07/19 10:57:31;;;;;;;9.75;3.85;;;32.00;54.20;;;;;;5112578;28;20492;-83
2023/07/19 10:59:56;;;;;;;13.10;3.83;;;31.80;55.00;;;;;;5094027;28;20028;-82
2023/07/19 11:02:22;;;;;;;7.85;4.40;;;31.70;54.40;;;;;;5111884;28;20027;-83
2023/07/19 11:04:49;;;;;;;11.35;3.85;;;31.60;55.80;;;;;;5094173;28;20031;-83
2023/07/19 11:07:15;;;;;;;9.07;3.72;;;31.70;56.30;;;;;;5094094;28;20027;-82
2023/07/19 11:09:42;;;;;;;10.25;3.95;;;31.70;56.40;;;;;;5094269;28;20035;-82
2023/07/19 11:12:10;;;;;;;8.85;3.63;;;31.80;55.90;;;;;;5094640;28;20114;-83
2023/07/19 11:14:41;;;;;;;9.35;4.43;;;31.90;55.70;;;;;;5094361;28;20036;-83
2023/07/19 11:17:07;;;;;;;7.65;3.95;;;31.90;56.70;;;;;;5112407;28;20020;-82
2023/07/19 11:19:40;;;;;;;13.25;3.90;;;31.80;55.50;;;;;;5112268;28;20484;-82
2023/07/19 11:22:08;;;;;;;11.65;3.40;;;31.90;55.30;;;;;;5093826;28;20499;-82
2023/07/19 11:24:38;;;;;;;8.68;3.08;;;31.90;55.10;;;;;;5093376;28;20066;-83
2023/07/19 11:27:04;;;;;;;14.10;3.00;;;32.00;54.20;;;;;;5111861;28;20024;-83
2023/07/19 11:29:31;;;;;;;7.50;3.10;;;32.00;52.90;;;;;;5112260;28;20519;-83
2023/07/19 11:32:20;;;;;;;7.72;3.30;;;32.10;53.00;;;;;;5111821;28;20045;-82
2023/07/19 11:34:53;;;;;;;10.40;3.60;;;32.10;53.50;;;;;;5112137;28;20036;-83
2023/07/19 11:37:19;;;;;;;6.18;3.10;;;32.00;53.20;;;;;;5093713;28;20444;-83
2023/07/19 11:39:48;;;;;;;13.07;3.88;;;32.10;54.00;;;;;;5112026;28;20090;-82
2023/07/19 11:42:14;;;;;;;12.18;3.83;;;32.20;53.40;;;;;;5093643;28;20015;-82
2023/07/19 11:44:44;;;;;;;11.63;3.50;;;32.30;53.20;;;;;;5111798;28;20031;-83
2023/07/19 11:47:10;;;;;;;5.68;2.67;;;32.30;51.70;;;;;;5111804;28;20035;-83
2023/07/19 11:49:36;;;;;;;15.82;4.65;;;32.30;51.60;;;;;;5111630;28;20438;-82
2023/07/19 11:52:02;;;;;;;6.97;2.80;;;32.30;51.60;;;;;;5111691;28;20073;-82
2023/07/19 11:54:28;;;;;;;8.52;2.83;;;32.30;51.50;;;;;;5092469;28;20035;-81
2023/07/19 11:56:54;;;;;;;7.28;3.50;;;32.10;51.40;;;;;;5093461;28;20049;-82
2023/07/19 11:59:19;;;;;;;8.20;3.47;;;32.10;51.20;;;;;;5111545;28;20027;-82
2023/07/19 12:01:46;;;;;;;10.25;4.32;;;32.10;51.40;;;;;;5111407;28;20118;-83
2023/07/19 12:04:11;;;;;;;6.88;2.90;;;32.10;51.70;;;;;;5093429;28;20062;-82
2023/07/19 12:06:37;;;;;;;8.88;3.83;;;32.00;51.30;;;;;;5111322;28;20555;-82
2023/07/19 12:09:03;;;;;;;8.93;3.22;;;32.10;52.60;;;;;;5110980;28;20036;-82
2023/07/19 12:11:29;;;;;;;13.70;4.22;;;32.10;51.80;;;;;;5093113;28;20065;-82
2023/07/19 12:13:57;;;;;;;8.93;2.65;;;32.10;51.30;;;;;;5111319;28;20066;-81
2023/07/19 12:16:23;;;;;;;11.60;3.60;;;32.20;50.40;;;;;;5111182;28;20392;-81
2023/07/19 12:18:49;;;;;;;8.65;4.03;;;32.20;51.20;;;;;;5093074;28;20031;-82
2023/07/19 12:21:14;;;;;;;8.60;3.40;;;32.30;51.40;;;;;;5111412;28;20023;-81
2023/07/19 12:23:40;;;;;;;8.23;2.78;;;32.30;51.30;;;;;;5093140;28;20035;-82
2023/07/19 12:26:06;;;;;;;11.38;3.22;;;32.40;50.40;;;;;;5093025;28;20016;-81
2023/07/19 12:28:32;;;;;;;8.70;3.05;;;32.50;50.60;;;;;;5111239;28;20035;-81
2023/07/19 12:30:57;;;;;;;9.73;3.10;;;32.60;50.10;;;;;;5092883;28;20072;-82
2023/07/19 12:33:23;;;;;;;7.57;3.10;;;32.60;48.60;;;;;;5111108;28;20484;-82
2023/07/19 12:35:49;;;;;;;9.63;2.83;;;32.60;49.50;;;;;;5093362;28;20028;-82
2023/07/19 12:38:15;;;;;;;8.90;3.40;;;32.60;48.30;;;;;;5111422;28;20024;-82